createdAt,value
2023-05-10T00:01:57.061Z,44.05
2023-05-10T00:04:23.518Z,46.53
2023-05-10T00:06:49.899Z,48.72
2023-05-10T00:09:16.342Z,48.63
2023-05-10T00:11:42.922Z,46.65
2023-05-10T00:14:09.334Z,47.58
2023-05-10T00:16:35.736Z,46.63
2023-05-10T00:19:02.243Z,55.65
2023-05-10T00:21:29.345Z,51.85
2023-05-10T00:23:56.116Z,49.47
2023-05-10T00:26:22.483Z,48.33
2023-05-10T00:28:48.867Z,56.08
2023-05-10T00:31:15.641Z,50.90
2023-05-10T00:33:42.010Z,51.17
2023-05-10T00:36:08.560Z,48.28
2023-05-10T00:38:35.014Z,54.20
2023-05-10T00:41:01.674Z,50.22
2023-05-10T00:43:28.070Z,51.40
2023-05-10T00:45:54.776Z,54.17
2023-05-10T00:48:21.273Z,49.67
2023-05-10T00:50:47.680Z,56.42
2023-05-10T00:53:14.167Z,46.60
2023-05-10T00:55:40.578Z,56.75
2023-05-10T00:58:07.093Z,50.10
2023-05-10T01:00:34.389Z,58.72
2023-05-10T01:03:01.619Z,51.42
2023-05-10T01:05:28.430Z,49.70
2023-05-10T01:07:54.815Z,56.10
2023-05-10T01:10:21.282Z,53.60
2023-05-10T01:12:48.322Z,53.58
2023-05-10T01:15:16.060Z,56.33
2023-05-10T01:17:44.857Z,60.05
2023-05-10T01:20:11.935Z,59.67
2023-05-10T01:23:03.451Z,57.47
2023-05-10T01:25:29.741Z,66.32
2023-05-10T01:28:14.794Z,61.55
2023-05-10T01:30:44.373Z,67.43
2023-05-10T01:33:29.155Z,75.47
2023-05-10T01:35:55.446Z,65.65
2023-05-10T01:38:36.939Z,70.75
2023-05-10T01:41:13.402Z,74.70
2023-05-10T01:43:57.324Z,65.75
2023-05-10T01:46:34.452Z,72.15
2023-05-10T01:49:01.782Z,68.53
2023-05-10T01:51:32.649Z,70.65
2023-05-10T01:54:02.827Z,71.15
2023-05-10T01:56:31.113Z,72.80
2023-05-10T01:58:58.159Z,77.47
2023-05-10T02:01:27.123Z,76.75
2023-05-10T02:03:55.175Z,66.07
2023-05-10T02:06:23.256Z,72.50
2023-05-10T02:08:50.941Z,76.78
2023-05-10T02:11:18.980Z,77.07
2023-05-10T02:13:46.046Z,69.32
2023-05-10T02:16:13.670Z,68.97
2023-05-10T02:18:42.295Z,73.05
2023-05-10T02:21:09.358Z,72.15
2023-05-10T02:23:36.862Z,72.00
2023-05-10T02:26:03.742Z,79.43
2023-05-10T02:28:30.680Z,81.28
2023-05-10T02:30:57.136Z,74.10
2023-05-10T02:33:23.605Z,78.00
2023-05-10T02:35:51.519Z,71.72
2023-05-10T02:38:20.423Z,78.85
2023-05-10T02:40:47.914Z,82.40
2023-05-10T02:43:15.619Z,80.32
2023-05-10T02:45:43.684Z,81.40
2023-05-10T02:48:10.428Z,79.50
2023-05-10T02:50:37.946Z,82.18
2023-05-10T02:53:12.549Z,78.50
2023-05-10T02:55:40.860Z,80.43
2023-05-10T02:58:07.283Z,78.28
2023-05-10T03:00:33.792Z,80.13
2023-05-10T03:03:00.314Z,85.43
2023-05-10T03:05:26.792Z,77.97
2023-05-10T03:07:53.701Z,86.63
2023-05-10T03:10:20.985Z,82.70
2023-05-10T03:13:02.516Z,82.22
2023-05-10T03:15:47.147Z,77.55
2023-05-10T03:18:23.418Z,85.20
2023-05-10T03:20:52.016Z,70.38
2023-05-10T03:23:21.037Z,80.40
2023-05-10T03:25:49.261Z,81.72
2023-05-10T03:28:16.676Z,85.78
2023-05-10T03:30:44.295Z,89.85
2023-05-10T03:33:11.687Z,91.40
2023-05-10T03:35:38.076Z,90.60
2023-05-10T03:38:04.484Z,92.03
2023-05-10T03:40:32.737Z,92.10
2023-05-10T03:42:59.993Z,94.75
2023-05-10T03:45:26.409Z,88.35
2023-05-10T03:47:52.861Z,91.30
2023-05-10T03:50:19.607Z,100.05
2023-05-10T03:52:46.237Z,83.68
2023-05-10T03:55:12.794Z,98.63
2023-05-10T03:57:39.451Z,78.97
2023-05-10T04:00:06.375Z,80.28
2023-05-10T04:02:32.984Z,84.82
2023-05-10T04:04:59.442Z,77.85
2023-05-10T04:07:25.801Z,69.90
2023-05-10T04:09:52.151Z,64.88
2023-05-10T04:12:18.532Z,66.68
2023-05-10T04:14:44.896Z,72.78
2023-05-10T04:17:11.569Z,64.93
2023-05-10T04:19:38.094Z,63.28
2023-05-10T04:22:04.514Z,71.85
2023-05-10T04:24:30.909Z,72.82
2023-05-10T04:26:57.972Z,62.67
2023-05-10T04:29:24.556Z,61.35
2023-05-10T04:31:51.886Z,60.38
2023-05-10T04:34:18.403Z,56.10
2023-05-10T04:36:44.815Z,46.55
2023-05-10T04:39:11.553Z,50.65
2023-05-10T04:41:39.307Z,52.58
2023-05-10T04:44:05.709Z,48.65
2023-05-10T04:46:32.194Z,47.67
2023-05-10T04:48:58.646Z,45.15
2023-05-10T04:51:25.025Z,43.78
2023-05-10T04:54:04.701Z,38.47
2023-05-10T04:56:32.737Z,44.75
2023-05-10T04:58:59.184Z,35.70
2023-05-10T05:01:25.634Z,33.55
2023-05-10T05:03:53.742Z,38.55
2023-05-10T05:06:21.812Z,40.22
2023-05-10T05:08:50.019Z,37.35
2023-05-10T05:11:16.444Z,30.88
2023-05-10T05:13:42.910Z,35.58
2023-05-10T05:16:09.380Z,28.80
2023-05-10T05:18:35.860Z,25.75
2023-05-10T05:21:02.281Z,29.13
2023-05-10T05:23:28.714Z,24.95
2023-05-10T05:25:55.303Z,27.92
2023-05-10T05:28:22.030Z,23.55
2023-05-10T05:30:48.410Z,25.42
2023-05-10T05:33:16.422Z,24.23
2023-05-10T05:35:45.572Z,25.02
2023-05-10T05:38:12.308Z,26.95
2023-05-10T05:40:38.744Z,25.98
2023-05-10T05:43:05.099Z,27.15
2023-05-10T05:45:31.463Z,27.13
2023-05-10T05:47:57.860Z,31.05
2023-05-10T05:50:24.275Z,27.50
2023-05-10T05:52:50.862Z,22.48
2023-05-10T05:55:17.624Z,21.45
2023-05-10T05:57:44.218Z,22.92
2023-05-10T06:00:11.292Z,21.38
2023-05-10T06:02:37.855Z,26.15
2023-05-10T06:05:04.669Z,25.40
2023-05-10T06:07:31.100Z,26.60
2023-05-10T06:09:57.510Z,23.23
2023-05-10T06:12:23.863Z,25.65
2023-05-10T06:14:50.215Z,33.05
2023-05-10T06:17:16.632Z,26.65
2023-05-10T06:19:42.994Z,20.10
2023-05-10T06:22:09.425Z,23.40
2023-05-10T06:24:35.953Z,24.58
2023-05-10T06:27:02.865Z,23.40
2023-05-10T06:29:29.286Z,25.05
2023-05-10T06:31:55.874Z,21.27
2023-05-10T06:34:22.435Z,24.73
2023-05-10T06:36:48.784Z,20.85
2023-05-10T06:39:15.197Z,23.42
2023-05-10T06:41:41.618Z,22.48
2023-05-10T06:44:07.991Z,24.77
2023-05-10T06:46:34.413Z,20.67
2023-05-10T06:49:00.857Z,20.42
2023-05-10T06:51:27.293Z,24.95
2023-05-10T06:53:53.871Z,27.38
2023-05-10T06:56:22.373Z,24.60
2023-05-10T06:58:49.482Z,26.58
2023-05-10T07:01:16.092Z,27.63
2023-05-10T07:03:42.568Z,23.80
2023-05-10T07:06:15.646Z,20.15
2023-05-10T07:08:48.423Z,23.10
2023-05-10T07:11:14.795Z,21.98
2023-05-10T07:13:44.979Z,22.58
2023-05-10T07:16:11.413Z,22.05
2023-05-10T07:18:37.931Z,25.88
2023-05-10T07:21:04.434Z,18.55
2023-05-10T07:23:30.950Z,19.08
2023-05-10T07:25:58.405Z,23.42
2023-05-10T07:28:27.870Z,20.27
2023-05-10T07:30:54.335Z,25.40
2023-05-10T07:33:21.271Z,21.10
2023-05-10T07:35:47.824Z,18.17
2023-05-10T07:38:14.270Z,21.17
2023-05-10T07:40:40.808Z,16.80
2023-05-10T07:43:07.375Z,21.30
2023-05-10T07:45:34.455Z,23.52
2023-05-10T07:48:01.180Z,18.95
2023-05-10T07:50:27.996Z,22.05
2023-05-10T07:52:54.535Z,16.20
2023-05-10T07:55:22.199Z,19.23
2023-05-10T07:57:48.721Z,17.33
2023-05-10T08:00:19.220Z,18.65
2023-05-10T08:02:45.988Z,19.50
2023-05-10T08:05:12.512Z,18.20
2023-05-10T08:07:38.917Z,16.65
2023-05-10T08:10:06.109Z,18.80
2023-05-10T08:12:32.519Z,16.33
2023-05-10T08:14:58.993Z,20.80
2023-05-10T08:17:25.673Z,16.77
2023-05-10T08:19:52.071Z,19.35
2023-05-10T08:22:18.503Z,19.85
2023-05-10T08:24:44.893Z,20.35
2023-05-10T08:27:11.298Z,18.30
2023-05-10T08:29:49.032Z,16.48
2023-05-10T08:34:42.605Z,17.08
2023-05-10T08:37:09.225Z,15.93
2023-05-10T08:39:36.404Z,16.08
2023-05-10T08:42:05.296Z,22.13
2023-05-10T08:44:36.618Z,20.48
2023-05-10T08:47:07.974Z,21.35
2023-05-10T08:49:34.729Z,20.73
2023-05-10T08:52:04.562Z,16.65
2023-05-10T08:54:32.809Z,15.75
2023-05-10T08:56:59.400Z,18.33
2023-05-10T08:59:25.912Z,17.00
2023-05-10T09:01:55.124Z,20.73
2023-05-10T09:04:22.234Z,19.00
2023-05-10T09:06:48.756Z,23.58
2023-05-10T09:09:15.725Z,24.90
2023-05-10T09:11:42.135Z,19.65
2023-05-10T09:14:10.416Z,21.58
2023-05-10T09:16:36.885Z,17.13
2023-05-10T09:19:03.877Z,20.25
2023-05-10T09:21:32.112Z,20.77
2023-05-10T09:24:04.254Z,18.83
2023-05-10T09:26:30.634Z,16.60
2023-05-10T09:28:58.587Z,17.98
2023-05-10T09:31:26.757Z,20.02
2023-05-10T09:33:54.896Z,19.92
2023-05-10T09:36:21.295Z,18.73
2023-05-10T09:38:55.723Z,20.00
2023-05-10T09:41:23.234Z,21.70
2023-05-10T09:43:50.520Z,19.13
2023-05-10T09:46:17.197Z,20.27
2023-05-10T09:48:45.788Z,19.33
2023-05-10T09:51:20.013Z,19.70
2023-05-10T09:53:46.842Z,21.27
2023-05-10T09:56:13.223Z,20.92
2023-05-10T09:58:40.080Z,22.00
2023-05-10T10:01:12.121Z,23.42
2023-05-10T10:03:43.219Z,22.00
2023-05-10T10:06:18.857Z,19.92
2023-05-10T10:08:49.209Z,21.25
2023-05-10T10:11:15.725Z,20.83
2023-05-10T10:13:42.122Z,18.40
2023-05-10T10:16:09.627Z,25.48
2023-05-10T10:18:39.710Z,18.10
2023-05-10T10:21:11.891Z,15.57
2023-05-10T10:23:38.317Z,18.33
2023-05-10T10:26:05.493Z,16.35
2023-05-10T10:28:52.856Z,15.43
2023-05-10T10:31:40.274Z,13.23
2023-05-10T10:34:08.054Z,15.75
2023-05-10T10:36:41.532Z,14.70
2023-05-10T10:39:10.540Z,17.33
2023-05-10T10:41:39.089Z,15.68
2023-05-10T10:44:26.848Z,16.52
2023-05-10T10:47:06.659Z,14.57
2023-05-10T10:49:36.908Z,18.48
2023-05-10T10:52:29.301Z,15.77
2023-05-10T10:55:10.163Z,13.80
2023-05-10T10:57:42.392Z,14.20
2023-05-10T11:00:22.203Z,19.52
2023-05-10T11:02:52.432Z,12.25
2023-05-10T11:05:34.913Z,14.18
2023-05-10T11:08:02.624Z,13.63
2023-05-10T11:10:29.775Z,13.60
2023-05-10T11:13:09.936Z,15.02
2023-05-10T11:15:40.349Z,13.55
2023-05-10T11:18:25.445Z,13.60
2023-05-10T11:20:53.312Z,15.05
2023-05-10T11:23:20.638Z,12.35
2023-05-10T11:25:47.058Z,12.00
2023-05-10T11:28:14.101Z,12.90
2023-05-10T11:30:41.501Z,12.98
2023-05-10T11:33:09.109Z,15.20
2023-05-10T11:35:43.012Z,14.70
2023-05-10T11:38:11.243Z,14.15
2023-05-10T11:40:38.505Z,13.40
2023-05-10T11:43:05.319Z,12.93
2023-05-10T11:45:35.506Z,15.65
2023-05-10T11:48:02.508Z,17.77
2023-05-10T11:50:29.147Z,18.30
2023-05-10T11:52:59.721Z,12.88
2023-05-10T11:55:26.180Z,16.00
2023-05-10T11:57:53.895Z,16.85
2023-05-10T12:00:20.821Z,15.27
2023-05-10T12:02:47.754Z,14.10
2023-05-10T12:05:14.324Z,18.35
2023-05-10T12:07:40.755Z,15.45
2023-05-10T12:10:09.141Z,17.30
2023-05-10T12:12:45.880Z,14.98
2023-05-10T12:15:25.385Z,17.30
2023-05-10T12:17:52.375Z,16.15
2023-05-10T12:20:25.360Z,15.90
2023-05-10T12:22:54.006Z,15.73
2023-05-10T12:25:21.752Z,16.83
2023-05-10T12:27:49.993Z,15.85
2023-05-10T12:30:20.904Z,17.98
2023-05-10T12:32:47.296Z,16.95
2023-05-10T12:35:13.744Z,16.88
2023-05-10T12:37:40.176Z,22.20
2023-05-10T12:40:09.038Z,13.02
2023-05-10T12:42:36.900Z,14.65
2023-05-10T12:45:04.701Z,15.05
2023-05-10T12:47:31.240Z,11.60
2023-05-10T12:49:57.710Z,11.68
2023-05-10T12:52:24.897Z,10.25
2023-05-10T12:54:51.347Z,12.32
2023-05-10T12:57:18.205Z,10.05
2023-05-10T12:59:44.581Z,13.35
2023-05-10T13:02:11.216Z,12.77
2023-05-10T13:04:40.652Z,11.50
2023-05-10T13:07:10.378Z,11.85
2023-05-10T13:09:36.969Z,12.77
2023-05-10T13:12:03.516Z,13.18
2023-05-10T13:14:30.228Z,14.55
2023-05-10T13:16:56.665Z,14.65
2023-05-10T13:19:23.157Z,15.05
2023-05-10T13:21:49.533Z,17.27
2023-05-10T13:24:16.043Z,16.30
2023-05-10T13:26:42.478Z,13.00
2023-05-10T13:29:09.013Z,20.42
2023-05-10T13:31:35.807Z,16.27
2023-05-10T13:34:03.312Z,16.02
2023-05-10T13:36:29.765Z,15.35
2023-05-10T13:38:56.342Z,14.75
2023-05-10T13:41:22.886Z,16.80
2023-05-10T13:43:50.184Z,16.23
2023-05-10T13:46:16.656Z,17.63
2023-05-10T13:48:43.100Z,20.15
2023-05-10T13:51:09.465Z,15.98
2023-05-10T13:53:35.841Z,17.45
2023-05-10T13:56:03.711Z,16.02
2023-05-10T13:58:30.067Z,18.17
2023-05-10T14:00:56.813Z,20.17
2023-05-10T14:03:23.248Z,18.35
2023-05-10T14:05:49.812Z,17.98
2023-05-10T14:08:16.672Z,17.45
2023-05-10T14:10:43.046Z,15.73
2023-05-10T14:13:09.445Z,14.00
2023-05-10T14:15:35.801Z,14.00
2023-05-10T14:18:02.589Z,14.45
2023-05-10T14:20:29.225Z,14.63
2023-05-10T14:22:55.636Z,15.25
2023-05-10T14:25:22.004Z,13.73
2023-05-10T14:27:48.792Z,13.50
2023-05-10T14:30:15.853Z,14.23
2023-05-10T14:32:42.399Z,15.00
2023-05-10T14:35:11.449Z,16.58
2023-05-10T14:37:39.394Z,16.92
2023-05-10T14:40:07.420Z,9.27
2023-05-10T14:42:33.843Z,10.55
2023-05-10T14:45:00.287Z,10.25
2023-05-10T14:47:26.704Z,10.35
2023-05-10T14:49:53.083Z,10.50
2023-05-10T14:52:19.449Z,15.10
2023-05-10T14:54:46.059Z,17.17
2023-05-10T14:57:12.433Z,20.92
2023-05-10T14:59:38.801Z,17.00
2023-05-10T15:02:05.753Z,20.35
2023-05-10T15:04:32.703Z,16.30
2023-05-10T15:07:00.437Z,16.30
2023-05-10T15:09:28.403Z,16.65
2023-05-10T15:11:55.466Z,16.27
2023-05-10T15:14:21.837Z,18.20
2023-05-10T15:16:48.210Z,18.05
2023-05-10T15:19:14.585Z,18.05
2023-05-10T15:21:43.350Z,16.73
2023-05-10T15:24:10.538Z,13.68
2023-05-10T15:26:36.925Z,16.48
2023-05-10T15:29:03.338Z,18.23
2023-05-10T15:31:29.809Z,13.95
2023-05-10T15:34:02.044Z,15.18
2023-05-10T15:36:28.396Z,19.05
2023-05-10T15:38:55.607Z,15.50
2023-05-10T15:41:21.999Z,14.68
2023-05-10T15:43:48.353Z,15.45
2023-05-10T15:46:14.727Z,12.38
2023-05-10T15:48:41.122Z,13.23
2023-05-10T15:51:07.494Z,10.20
2023-05-10T15:53:34.037Z,8.32
2023-05-10T15:56:00.413Z,9.75
2023-05-10T15:58:26.839Z,9.23
2023-05-10T16:00:53.345Z,9.68
2023-05-10T16:03:19.813Z,8.35
2023-05-10T16:05:46.577Z,6.22
2023-05-10T16:08:13.145Z,7.40
2023-05-10T16:10:39.616Z,7.55
2023-05-10T16:13:06.257Z,7.13
2023-05-10T16:15:32.719Z,8.18
2023-05-10T16:17:59.303Z,7.47
2023-05-10T16:20:26.668Z,7.65
2023-05-10T16:22:53.063Z,6.13
2023-05-10T16:25:19.750Z,8.02
2023-05-10T16:27:46.382Z,7.55
2023-05-10T16:30:12.958Z,6.47
2023-05-10T16:32:39.418Z,7.68
2023-05-10T16:35:06.383Z,7.13
2023-05-10T16:37:32.941Z,6.68
2023-05-10T16:39:59.675Z,7.93
2023-05-10T16:42:27.988Z,9.25
2023-05-10T16:44:54.715Z,7.78
2023-05-10T16:47:21.209Z,6.22
2023-05-10T16:49:47.602Z,7.63
2023-05-10T16:52:14.066Z,8.77
2023-05-10T16:54:40.529Z,11.10
2023-05-10T16:57:08.424Z,8.40
2023-05-10T16:59:34.857Z,7.95
2023-05-10T17:02:01.313Z,9.07
2023-05-10T17:04:28.634Z,7.47
2023-05-10T17:06:55.054Z,10.80
2023-05-10T17:09:21.520Z,9.43
2023-05-10T17:11:47.875Z,7.55
2023-05-10T17:14:14.297Z,8.57
2023-05-10T17:16:41.818Z,9.18
2023-05-10T17:19:08.855Z,6.78
2023-05-10T17:21:35.391Z,8.15
2023-05-10T17:24:01.787Z,7.55
2023-05-10T17:26:29.876Z,8.45
2023-05-10T17:28:56.247Z,10.30
2023-05-10T17:31:22.687Z,10.43
2023-05-10T17:33:49.189Z,11.25
2023-05-10T17:36:15.647Z,9.38
2023-05-10T17:38:43.375Z,10.40
2023-05-10T17:41:09.802Z,11.95
2023-05-10T17:43:36.476Z,9.30
2023-05-10T17:46:03.544Z,9.75
2023-05-10T17:48:29.992Z,8.68
2023-05-10T17:50:56.553Z,14.27
2023-05-10T17:53:22.998Z,10.98
2023-05-10T17:55:51.534Z,7.95
2023-05-10T17:58:17.936Z,10.02
2023-05-10T18:00:44.739Z,8.32
2023-05-10T18:03:11.314Z,7.60
2023-05-10T18:05:38.829Z,10.02
2023-05-10T18:08:05.602Z,7.25
2023-05-10T18:10:32.293Z,8.43
2023-05-10T18:12:58.735Z,6.57
2023-05-10T18:15:25.483Z,5.88
2023-05-10T18:17:51.918Z,5.68
2023-05-10T18:20:18.623Z,6.07
2023-05-10T18:22:45.087Z,7.15
2023-05-10T18:25:11.518Z,6.30
2023-05-10T18:27:38.282Z,8.02
2023-05-10T18:30:06.224Z,6.68
2023-05-10T18:32:32.652Z,6.55
2023-05-10T18:34:59.106Z,8.35
2023-05-10T18:37:25.554Z,7.72
2023-05-10T18:39:51.991Z,8.35
2023-05-10T18:42:18.384Z,7.47
2023-05-10T18:44:44.949Z,9.20
2023-05-10T18:47:11.652Z,8.48
2023-05-10T18:49:38.792Z,9.52
2023-05-10T18:52:05.207Z,11.40
2023-05-10T18:54:31.654Z,10.95
2023-05-10T18:56:58.674Z,13.20
2023-05-10T18:59:25.585Z,11.93
2023-05-10T19:01:53.146Z,11.27
2023-05-10T19:04:21.036Z,10.48
2023-05-10T19:06:47.734Z,13.55
2023-05-10T19:09:14.185Z,11.93
2023-05-10T19:11:41.046Z,11.48
2023-05-10T19:14:07.453Z,12.80
2023-05-10T19:16:35.912Z,13.20
2023-05-10T19:19:03.032Z,11.55
2023-05-10T19:21:31.944Z,10.30
2023-05-10T19:23:58.784Z,14.55
2023-05-10T19:26:25.270Z,15.18
2023-05-10T19:28:52.420Z,10.55
2023-05-10T19:31:19.426Z,13.88
2023-05-10T19:33:46.848Z,11.30
2023-05-10T19:36:13.486Z,10.32
2023-05-10T19:38:40.003Z,10.48
2023-05-10T19:41:07.768Z,12.90
2023-05-10T19:43:36.503Z,12.05
2023-05-10T19:46:02.899Z,11.02
2023-05-10T19:48:29.890Z,10.32
2023-05-10T19:51:00.797Z,11.35
2023-05-10T19:53:27.645Z,9.57
2023-05-10T19:55:54.394Z,13.25
2023-05-10T19:58:20.856Z,12.85
2023-05-10T20:00:47.255Z,11.43
2023-05-10T20:03:13.661Z,12.27
2023-05-10T20:05:40.271Z,12.18
2023-05-10T20:08:06.738Z,11.55
2023-05-10T20:10:33.188Z,11.00
2023-05-10T20:13:00.403Z,14.93
2023-05-10T20:15:29.541Z,12.18
2023-05-10T20:17:56.115Z,15.63
2023-05-10T20:20:22.875Z,12.85
2023-05-10T20:22:49.942Z,12.48
2023-05-10T20:25:17.312Z,11.75
2023-05-10T20:27:44.060Z,10.65
2023-05-10T20:30:11.353Z,13.23
2023-05-10T20:32:38.332Z,12.48
2023-05-10T20:35:09.617Z,14.95
2023-05-10T20:37:37.855Z,16.83
2023-05-10T20:40:05.964Z,20.15
2023-05-10T20:42:32.492Z,18.98
2023-05-10T20:44:58.925Z,20.75
2023-05-10T20:47:25.452Z,21.15
2023-05-10T20:49:51.968Z,19.60
2023-05-10T20:52:18.435Z,20.88
2023-05-10T20:54:44.913Z,18.23
2023-05-10T20:57:14.474Z,21.02
2023-05-10T20:59:41.205Z,21.23
2023-05-10T21:02:08.076Z,21.00
2023-05-10T21:04:35.025Z,22.13
2023-05-10T21:07:01.542Z,20.88
2023-05-10T21:09:27.941Z,22.92
2023-05-10T21:11:54.374Z,22.50
2023-05-10T21:14:20.765Z,25.63
2023-05-10T21:16:47.195Z,21.60
2023-05-10T21:19:13.644Z,22.75
2023-05-10T21:21:40.106Z,21.70
2023-05-10T21:24:07.149Z,23.73
2023-05-10T21:26:33.654Z,25.30
2023-05-10T21:29:00.084Z,22.70
2023-05-10T21:31:26.559Z,22.08
2023-05-10T21:33:53.005Z,23.17
2023-05-10T21:36:19.513Z,21.92
2023-05-10T21:38:46.677Z,22.95
2023-05-10T21:41:13.115Z,22.33
2023-05-10T21:43:39.551Z,21.90
2023-05-10T21:46:07.093Z,21.65
2023-05-10T21:48:33.669Z,23.65
2023-05-10T21:51:01.460Z,21.80
2023-05-10T21:53:28.548Z,19.25
2023-05-10T21:55:57.850Z,19.90
2023-05-10T21:58:24.292Z,19.50
2023-05-10T22:00:50.890Z,19.45
2023-05-10T22:03:18.266Z,21.50
2023-05-10T22:05:44.728Z,18.10
2023-05-10T22:08:11.141Z,17.55
2023-05-10T22:10:37.560Z,17.85
2023-05-10T22:13:03.967Z,21.48
2023-05-10T22:15:34.217Z,19.33
2023-05-10T22:18:02.048Z,18.98
2023-05-10T22:20:28.495Z,19.17
2023-05-10T22:22:55.643Z,17.63
2023-05-10T22:25:22.225Z,16.67
2023-05-10T22:27:48.778Z,21.67
2023-05-10T22:30:15.393Z,17.33
2023-05-10T22:32:41.968Z,19.98
2023-05-10T22:35:08.675Z,16.40
2023-05-10T22:37:35.007Z,17.85
2023-05-10T22:40:01.377Z,18.83
2023-05-10T22:42:27.781Z,18.90
2023-05-10T22:44:54.198Z,18.23
2023-05-10T22:47:20.604Z,19.50
2023-05-10T22:49:47.095Z,21.65
2023-05-10T22:52:13.522Z,19.15
2023-05-10T22:54:39.861Z,22.90
2023-05-10T22:57:06.913Z,21.30
2023-05-10T22:59:33.561Z,20.08
2023-05-10T23:02:00.031Z,18.65
2023-05-10T23:04:26.581Z,21.80
2023-05-10T23:06:53.648Z,20.52
2023-05-10T23:09:20.081Z,23.23
2023-05-10T23:11:46.922Z,19.00
2023-05-10T23:14:13.333Z,17.08
2023-05-10T23:16:39.841Z,15.15
2023-05-10T23:19:07.114Z,14.85
2023-05-10T23:21:34.441Z,14.93
2023-05-10T23:24:00.953Z,14.85
2023-05-10T23:26:27.379Z,13.02
2023-05-10T23:28:53.760Z,12.75
2023-05-10T23:31:20.190Z,13.27
2023-05-10T23:33:46.621Z,13.77
2023-05-10T23:36:13.052Z,13.65
2023-05-10T23:38:39.521Z,13.90
2023-05-10T23:41:06.150Z,13.00
2023-05-10T23:43:32.532Z,13.32
2023-05-10T23:45:59.316Z,11.23
2023-05-10T23:48:25.849Z,10.68
2023-05-10T23:50:52.245Z,10.73
2023-05-10T23:53:18.722Z,10.57
2023-05-10T23:55:45.495Z,11.48
2023-05-10T23:58:12.477Z,12.23
